sensor_id;sensor_type;location;lat;lon;timestamp;temperature;humidity
45207;DHT22;30950;53.086;21.576;2023-03-20T00:01:27;5.80;99.90
45207;DHT22;30950;53.086;21.576;2023-03-20T00:03:56;5.80;99.90
45207;DHT22;30950;53.086;21.576;2023-03-20T00:06:26;5.80;99.90
45207;DHT22;30950;53.086;21.576;2023-03-20T00:08:56;5.70;99.90
45207;DHT22;30950;53.086;21.576;2023-03-20T00:13:59;5.70;99.90
45207;DHT22;30950;53.086;21.576;2023-03-20T00:16:35;5.70;99.90
45207;DHT22;30950;53.086;21.576;2023-03-20T00:19:04;5.70;99.90
45207;DHT22;30950;53.086;21.576;2023-03-20T00:21:32;5.70;99.90
45207;DHT22;30950;53.086;21.576;2023-03-20T00:24:00;5.70;99.90
45207;DHT22;30950;53.086;21.576;2023-03-20T00:26:32;5.70;99.90
45207;DHT22;30950;53.086;21.576;2023-03-20T00:29:01;5.70;99.90
45207;DHT22;30950;53.086;21.576;2023-03-20T00:31:36;5.70;99.90
45207;DHT22;30950;53.086;21.576;2023-03-20T00:34:09;5.60;99.90
45207;DHT22;30950;53.086;21.576;2023-03-20T00:36:38;5.60;99.90
45207;DHT22;30950;53.086;21.576;2023-03-20T00:39:06;5.70;99.90
45207;DHT22;30950;53.086;21.576;2023-03-20T00:41:47;5.60;99.90
45207;DHT22;30950;53.086;21.576;2023-03-20T00:47:24;5.50;99.90
45207;DHT22;30950;53.086;21.576;2023-03-20T00:49:54;5.50;99.90
45207;DHT22;30950;53.086;21.576;2023-03-20T00:52:22;5.40;99.90
45207;DHT22;30950;53.086;21.576;2023-03-20T00:54:51;5.40;99.90
45207;DHT22;30950;53.086;21.576;2023-03-20T00:57:21;5.40;99.90
45207;DHT22;30950;53.086;21.576;2023-03-20T01:02:25;5.30;99.90
45207;DHT22;30950;53.086;21.576;2023-03-20T01:04:55;5.30;99.90
45207;DHT22;30950;53.086;21.576;2023-03-20T01:07:25;5.20;99.90
45207;DHT22;30950;53.086;21.576;2023-03-20T01:09:52;5.20;99.90
45207;DHT22;30950;53.086;21.576;2023-03-20T01:12:19;5.20;99.90
45207;DHT22;30950;53.086;21.576;2023-03-20T01:14:55;5.10;99.90
45207;DHT22;30950;53.086;21.576;2023-03-20T01:17:25;5.10;99.90
45207;DHT22;30950;53.086;21.576;2023-03-20T01:19:53;5.10;99.90
45207;DHT22;30950;53.086;21.576;2023-03-20T01:22:20;5.00;99.90
45207;DHT22;30950;53.086;21.576;2023-03-20T01:24:48;5.00;99.90
45207;DHT22;30950;53.086;21.576;2023-03-20T01:27:17;4.90;99.90
45207;DHT22;30950;53.086;21.576;2023-03-20T01:29:45;4.90;99.90
45207;DHT22;30950;53.086;21.576;2023-03-20T01:32:18;4.90;99.90
45207;DHT22;30950;53.086;21.576;2023-03-20T01:34:51;4.90;99.90
45207;DHT22;30950;53.086;21.576;2023-03-20T01:37:26;4.80;99.90
45207;DHT22;30950;53.086;21.576;2023-03-20T01:39:58;4.80;99.90
45207;DHT22;30950;53.086;21.576;2023-03-20T01:42:27;4.70;99.90
45207;DHT22;30950;53.086;21.576;2023-03-20T01:44:55;4.70;99.90
45207;DHT22;30950;53.086;21.576;2023-03-20T01:47:23;4.70;99.90
45207;DHT22;30950;53.086;21.576;2023-03-20T01:50:26;4.60;99.90
45207;DHT22;30950;53.086;21.576;2023-03-20T01:53:20;4.60;99.90
45207;DHT22;30950;53.086;21.576;2023-03-20T01:55:57;4.50;99.90
45207;DHT22;30950;53.086;21.576;2023-03-20T01:58:38;4.50;99.90
45207;DHT22;30950;53.086;21.576;2023-03-20T02:01:09;4.50;99.90
45207;DHT22;30950;53.086;21.576;2023-03-20T02:03:39;4.40;99.90
45207;DHT22;30950;53.086;21.576;2023-03-20T02:06:42;4.40;99.90
45207;DHT22;30950;53.086;21.576;2023-03-20T02:09:31;4.40;99.90
45207;DHT22;30950;53.086;21.576;2023-03-20T02:12:00;4.30;99.90
45207;DHT22;30950;53.086;21.576;2023-03-20T02:14:28;4.30;99.90
45207;DHT22;30950;53.086;21.576;2023-03-20T02:17:11;4.30;99.90
45207;DHT22;30950;53.086;21.576;2023-03-20T02:20:13;4.20;99.90
45207;DHT22;30950;53.086;21.576;2023-03-20T02:26:01;4.20;99.90
45207;DHT22;30950;53.086;21.576;2023-03-20T02:28:57;4.10;99.90
45207;DHT22;30950;53.086;21.576;2023-03-20T02:32:01;4.00;99.90
45207;DHT22;30950;53.086;21.576;2023-03-20T02:45:27;3.90;99.90
45207;DHT22;30950;53.086;21.576;2023-03-20T02:51:01;3.80;99.90
45207;DHT22;30950;53.086;21.576;2023-03-20T02:53:38;3.80;99.90
45207;DHT22;30950;53.086;21.576;2023-03-20T02:56:17;3.80;99.90
45207;DHT22;30950;53.086;21.576;2023-03-20T02:58:59;3.70;99.90
45207;DHT22;30950;53.086;21.576;2023-03-20T03:01:34;3.70;99.90
45207;DHT22;30950;53.086;21.576;2023-03-20T03:04:08;3.70;99.90
45207;DHT22;30950;53.086;21.576;2023-03-20T03:06:41;3.60;99.90
45207;DHT22;30950;53.086;21.576;2023-03-20T03:09:16;3.60;99.90
45207;DHT22;30950;53.086;21.576;2023-03-20T03:12:06;3.60;99.90
45207;DHT22;30950;53.086;21.576;2023-03-20T03:14:58;3.70;99.90
45207;DHT22;30950;53.086;21.576;2023-03-20T03:17:31;3.70;99.90
45207;DHT22;30950;53.086;21.576;2023-03-20T03:20:03;3.60;99.90
45207;DHT22;30950;53.086;21.576;2023-03-20T03:22:32;3.60;99.90
45207;DHT22;30950;53.086;21.576;2023-03-20T03:25:00;3.70;99.90
45207;DHT22;30950;53.086;21.576;2023-03-20T03:27:35;3.70;99.90
45207;DHT22;30950;53.086;21.576;2023-03-20T03:30:14;3.70;99.90
45207;DHT22;30950;53.086;21.576;2023-03-20T03:32:49;3.70;99.90
45207;DHT22;30950;53.086;21.576;2023-03-20T03:35:19;3.70;99.90
45207;DHT22;30950;53.086;21.576;2023-03-20T03:38:12;3.70;99.90
45207;DHT22;30950;53.086;21.576;2023-03-20T03:40:45;3.70;99.90
45207;DHT22;30950;53.086;21.576;2023-03-20T03:43:51;3.70;99.90
45207;DHT22;30950;53.086;21.576;2023-03-20T03:46:26;3.70;99.90
45207;DHT22;30950;53.086;21.576;2023-03-20T03:49:00;3.80;99.90
45207;DHT22;30950;53.086;21.576;2023-03-20T03:51:30;3.70;99.90
45207;DHT22;30950;53.086;21.576;2023-03-20T03:54:10;3.80;99.90
45207;DHT22;30950;53.086;21.576;2023-03-20T03:56:40;3.80;99.90
45207;DHT22;30950;53.086;21.576;2023-03-20T03:59:26;3.70;99.90
45207;DHT22;30950;53.086;21.576;2023-03-20T04:01:57;3.80;99.90
45207;DHT22;30950;53.086;21.576;2023-03-20T04:04:28;3.80;99.90
45207;DHT22;30950;53.086;21.576;2023-03-20T04:06:56;3.80;99.90
45207;DHT22;30950;53.086;21.576;2023-03-20T04:09:24;3.80;99.90
45207;DHT22;30950;53.086;21.576;2023-03-20T04:11:52;3.80;99.90
45207;DHT22;30950;53.086;21.576;2023-03-20T04:14:20;3.90;99.90
45207;DHT22;30950;53.086;21.576;2023-03-20T04:16:47;3.90;99.90
45207;DHT22;30950;53.086;21.576;2023-03-20T04:19:15;3.90;99.90
45207;DHT22;30950;53.086;21.576;2023-03-20T04:21:44;3.90;99.90
45207;DHT22;30950;53.086;21.576;2023-03-20T04:24:12;4.00;99.90
45207;DHT22;30950;53.086;21.576;2023-03-20T04:26:39;4.00;99.90
45207;DHT22;30950;53.086;21.576;2023-03-20T04:29:07;4.10;99.90
45207;DHT22;30950;53.086;21.576;2023-03-20T04:31:54;4.10;99.90
45207;DHT22;30950;53.086;21.576;2023-03-20T04:34:36;4.10;99.90
45207;DHT22;30950;53.086;21.576;2023-03-20T04:37:13;4.20;99.90
45207;DHT22;30950;53.086;21.576;2023-03-20T04:39:49;4.20;99.90
45207;DHT22;30950;53.086;21.576;2023-03-20T04:42:16;4.20;99.90
45207;DHT22;30950;53.086;21.576;2023-03-20T04:44:44;4.20;99.90
45207;DHT22;30950;53.086;21.576;2023-03-20T04:47:12;4.20;99.90
45207;DHT22;30950;53.086;21.576;2023-03-20T04:49:42;4.20;99.90
45207;DHT22;30950;53.086;21.576;2023-03-20T04:52:09;4.30;99.90
45207;DHT22;30950;53.086;21.576;2023-03-20T04:54:42;4.30;99.90
45207;DHT22;30950;53.086;21.576;2023-03-20T04:57:09;4.30;99.90
45207;DHT22;30950;53.086;21.576;2023-03-20T04:59:38;4.30;99.90
45207;DHT22;30950;53.086;21.576;2023-03-20T05:02:05;4.30;99.90
45207;DHT22;30950;53.086;21.576;2023-03-20T05:04:33;4.40;99.90
45207;DHT22;30950;53.086;21.576;2023-03-20T05:07:01;4.40;99.90
45207;DHT22;30950;53.086;21.576;2023-03-20T05:09:37;4.40;99.90
45207;DHT22;30950;53.086;21.576;2023-03-20T05:12:08;4.50;99.90
45207;DHT22;30950;53.086;21.576;2023-03-20T05:14:58;4.50;99.90
45207;DHT22;30950;53.086;21.576;2023-03-20T05:17:38;4.60;99.90
45207;DHT22;30950;53.086;21.576;2023-03-20T05:20:19;4.60;99.90
45207;DHT22;30950;53.086;21.576;2023-03-20T05:23:00;4.60;99.90
45207;DHT22;30950;53.086;21.576;2023-03-20T05:25:54;4.60;99.90
45207;DHT22;30950;53.086;21.576;2023-03-20T05:28:41;4.70;99.90
45207;DHT22;30950;53.086;21.576;2023-03-20T05:31:16;4.70;99.90
45207;DHT22;30950;53.086;21.576;2023-03-20T05:33:58;4.70;99.90
45207;DHT22;30950;53.086;21.576;2023-03-20T05:36:56;4.70;99.90
45207;DHT22;30950;53.086;21.576;2023-03-20T05:39:26;4.80;99.90
45207;DHT22;30950;53.086;21.576;2023-03-20T05:42:12;4.80;99.90
45207;DHT22;30950;53.086;21.576;2023-03-20T05:45:05;4.90;99.90
45207;DHT22;30950;53.086;21.576;2023-03-20T05:47:59;4.80;99.90
45207;DHT22;30950;53.086;21.576;2023-03-20T05:50:50;4.90;99.90
45207;DHT22;30950;53.086;21.576;2023-03-20T05:53:36;4.90;99.90
45207;DHT22;30950;53.086;21.576;2023-03-20T05:56:23;5.00;99.90
45207;DHT22;30950;53.086;21.576;2023-03-20T05:59:12;5.00;99.90
45207;DHT22;30950;53.086;21.576;2023-03-20T06:02:27;5.10;99.90
45207;DHT22;30950;53.086;21.576;2023-03-20T06:05:07;5.10;99.90
45207;DHT22;30950;53.086;21.576;2023-03-20T06:07:43;5.20;99.90
45207;DHT22;30950;53.086;21.576;2023-03-20T06:10:13;5.30;99.90
45207;DHT22;30950;53.086;21.576;2023-03-20T06:12:42;5.40;99.90
45207;DHT22;30950;53.086;21.576;2023-03-20T06:15:10;5.50;99.90
45207;DHT22;30950;53.086;21.576;2023-03-20T06:17:42;5.60;99.90
45207;DHT22;30950;53.086;21.576;2023-03-20T06:20:12;5.70;99.90
45207;DHT22;30950;53.086;21.576;2023-03-20T06:22:40;5.90;99.90
45207;DHT22;30950;53.086;21.576;2023-03-20T06:25:08;6.00;99.90
45207;DHT22;30950;53.086;21.576;2023-03-20T06:27:40;6.10;99.90
45207;DHT22;30950;53.086;21.576;2023-03-20T06:30:08;6.20;99.90
45207;DHT22;30950;53.086;21.576;2023-03-20T06:32:37;6.30;99.90
45207;DHT22;30950;53.086;21.576;2023-03-20T06:35:08;6.40;99.90
45207;DHT22;30950;53.086;21.576;2023-03-20T06:37:36;6.50;99.90
45207;DHT22;30950;53.086;21.576;2023-03-20T06:40:09;6.60;99.90
45207;DHT22;30950;53.086;21.576;2023-03-20T06:42:37;6.80;99.90
45207;DHT22;30950;53.086;21.576;2023-03-20T06:45:06;6.90;99.90
45207;DHT22;30950;53.086;21.576;2023-03-20T06:47:55;7.00;99.90
45207;DHT22;30950;53.086;21.576;2023-03-20T06:50:23;7.10;99.90
45207;DHT22;30950;53.086;21.576;2023-03-20T06:52:51;7.10;99.90
45207;DHT22;30950;53.086;21.576;2023-03-20T06:55:37;7.20;99.90
45207;DHT22;30950;53.086;21.576;2023-03-20T06:58:05;7.40;99.90
45207;DHT22;30950;53.086;21.576;2023-03-20T07:00:34;7.40;99.90
45207;DHT22;30950;53.086;21.576;2023-03-20T07:03:04;7.50;99.90
45207;DHT22;30950;53.086;21.576;2023-03-20T07:05:31;7.70;99.90
45207;DHT22;30950;53.086;21.576;2023-03-20T07:08:04;7.80;99.90
45207;DHT22;30950;53.086;21.576;2023-03-20T07:10:32;7.90;99.90
45207;DHT22;30950;53.086;21.576;2023-03-20T07:13:00;8.00;99.90
45207;DHT22;30950;53.086;21.576;2023-03-20T07:15:27;8.10;99.90
45207;DHT22;30950;53.086;21.576;2023-03-20T07:17:56;8.30;99.90
45207;DHT22;30950;53.086;21.576;2023-03-20T07:20:26;8.40;99.90
45207;DHT22;30950;53.086;21.576;2023-03-20T07:22:54;8.60;99.90
45207;DHT22;30950;53.086;21.576;2023-03-20T07:25:24;8.80;99.90
45207;DHT22;30950;53.086;21.576;2023-03-20T07:28:11;9.00;99.90
45207;DHT22;30950;53.086;21.576;2023-03-20T07:30:42;9.20;99.90
45207;DHT22;30950;53.086;21.576;2023-03-20T07:33:10;9.40;99.90
45207;DHT22;30950;53.086;21.576;2023-03-20T07:35:38;9.50;99.90
45207;DHT22;30950;53.086;21.576;2023-03-20T07:38:08;9.70;99.90
45207;DHT22;30950;53.086;21.576;2023-03-20T07:40:44;9.80;99.90
45207;DHT22;30950;53.086;21.576;2023-03-20T07:43:16;9.90;99.90
45207;DHT22;30950;53.086;21.576;2023-03-20T07:46:08;10.10;99.90
45207;DHT22;30950;53.086;21.576;2023-03-20T07:48:37;10.20;99.90
45207;DHT22;30950;53.086;21.576;2023-03-20T07:51:05;10.30;99.90
45207;DHT22;30950;53.086;21.576;2023-03-20T07:53:32;10.50;99.90
45207;DHT22;30950;53.086;21.576;2023-03-20T07:56:00;10.60;99.90
45207;DHT22;30950;53.086;21.576;2023-03-20T07:58:33;10.70;99.90
45207;DHT22;30950;53.086;21.576;2023-03-20T08:01:02;10.80;99.90
45207;DHT22;30950;53.086;21.576;2023-03-20T08:03:29;11.00;99.90
45207;DHT22;30950;53.086;21.576;2023-03-20T08:05:58;11.10;99.90
45207;DHT22;30950;53.086;21.576;2023-03-20T08:08:25;11.20;99.90
45207;DHT22;30950;53.086;21.576;2023-03-20T08:10:52;11.40;99.90
45207;DHT22;30950;53.086;21.576;2023-03-20T08:13:20;11.50;99.90
45207;DHT22;30950;53.086;21.576;2023-03-20T08:15:47;11.60;99.90
45207;DHT22;30950;53.086;21.576;2023-03-20T08:18:15;11.70;99.90
45207;DHT22;30950;53.086;21.576;2023-03-20T08:20:42;11.90;99.90
45207;DHT22;30950;53.086;21.576;2023-03-20T08:23:09;12.00;99.90
45207;DHT22;30950;53.086;21.576;2023-03-20T08:25:37;12.10;99.90
45207;DHT22;30950;53.086;21.576;2023-03-20T08:28:05;12.20;99.90
45207;DHT22;30950;53.086;21.576;2023-03-20T08:30:32;12.20;99.90
45207;DHT22;30950;53.086;21.576;2023-03-20T08:33:00;12.30;98.10
45207;DHT22;30950;53.086;21.576;2023-03-20T08:35:28;12.30;98.50
45207;DHT22;30950;53.086;21.576;2023-03-20T08:38:00;12.30;98.10
45207;DHT22;30950;53.086;21.576;2023-03-20T08:40:28;12.40;97.50
45207;DHT22;30950;53.086;21.576;2023-03-20T08:42:55;12.40;97.90
45207;DHT22;30950;53.086;21.576;2023-03-20T08:45:23;12.50;98.30
45207;DHT22;30950;53.086;21.576;2023-03-20T08:47:52;12.60;98.10
45207;DHT22;30950;53.086;21.576;2023-03-20T08:50:19;12.60;97.80
45207;DHT22;30950;53.086;21.576;2023-03-20T08:52:47;12.70;97.20
45207;DHT22;30950;53.086;21.576;2023-03-20T08:55:14;12.70;95.90
45207;DHT22;30950;53.086;21.576;2023-03-20T08:57:43;12.70;95.90
45207;DHT22;30950;53.086;21.576;2023-03-20T09:00:12;12.70;94.90
45207;DHT22;30950;53.086;21.576;2023-03-20T09:02:42;12.60;94.30
45207;DHT22;30950;53.086;21.576;2023-03-20T09:05:09;12.60;94.90
45207;DHT22;30950;53.086;21.576;2023-03-20T09:07:37;12.60;95.30
45207;DHT22;30950;53.086;21.576;2023-03-20T09:10:05;12.60;94.60
45207;DHT22;30950;53.086;21.576;2023-03-20T09:12:33;12.60;94.30
45207;DHT22;30950;53.086;21.576;2023-03-20T09:15:00;12.60;94.60
45207;DHT22;30950;53.086;21.576;2023-03-20T09:17:28;12.70;92.60
45207;DHT22;30950;53.086;21.576;2023-03-20T09:19:57;12.70;92.80
45207;DHT22;30950;53.086;21.576;2023-03-20T09:22:24;12.70;92.70
45207;DHT22;30950;53.086;21.576;2023-03-20T09:24:52;12.80;92.20
45207;DHT22;30950;53.086;21.576;2023-03-20T09:27:19;12.80;90.60
45207;DHT22;30950;53.086;21.576;2023-03-20T09:29:47;12.80;90.00
45207;DHT22;30950;53.086;21.576;2023-03-20T09:32:15;12.90;86.30
45207;DHT22;30950;53.086;21.576;2023-03-20T09:34:42;12.90;87.40
45207;DHT22;30950;53.086;21.576;2023-03-20T09:37:09;13.00;86.70
45207;DHT22;30950;53.086;21.576;2023-03-20T09:39:37;13.10;87.10
45207;DHT22;30950;53.086;21.576;2023-03-20T09:42:40;13.20;83.10
45207;DHT22;30950;53.086;21.576;2023-03-20T09:45:26;13.30;85.20
45207;DHT22;30950;53.086;21.576;2023-03-20T09:50:52;13.60;82.90
45207;DHT22;30950;53.086;21.576;2023-03-20T09:53:32;13.70;81.60
45207;DHT22;30950;53.086;21.576;2023-03-20T09:56:00;13.80;82.30
45207;DHT22;30950;53.086;21.576;2023-03-20T09:58:38;13.90;83.30
45207;DHT22;30950;53.086;21.576;2023-03-20T10:01:07;14.10;81.80
45207;DHT22;30950;53.086;21.576;2023-03-20T10:06:15;14.40;80.10
45207;DHT22;30950;53.086;21.576;2023-03-20T10:08:44;14.50;78.40
45207;DHT22;30950;53.086;21.576;2023-03-20T10:19:30;15.00;72.70
45207;DHT22;30950;53.086;21.576;2023-03-20T10:22:25;15.10;74.00
45207;DHT22;30950;53.086;21.576;2023-03-20T10:27:50;15.30;70.90
45207;DHT22;30950;53.086;21.576;2023-03-20T10:33:36;15.50;69.40
45207;DHT22;30950;53.086;21.576;2023-03-20T10:41:34;15.90;69.50
45207;DHT22;30950;53.086;21.576;2023-03-20T10:44:05;16.00;67.40
45207;DHT22;30950;53.086;21.576;2023-03-20T10:46:42;16.20;69.10
45207;DHT22;30950;53.086;21.576;2023-03-20T10:52:00;17.30;66.40
45207;DHT22;30950;53.086;21.576;2023-03-20T10:54:36;17.70;63.50
45207;DHT22;30950;53.086;21.576;2023-03-20T10:57:20;18.10;63.00
45207;DHT22;30950;53.086;21.576;2023-03-20T10:59:54;18.20;60.30
45207;DHT22;30950;53.086;21.576;2023-03-20T11:02:27;18.30;59.70
45207;DHT22;30950;53.086;21.576;2023-03-20T11:04:55;18.00;60.30
45207;DHT22;30950;53.086;21.576;2023-03-20T11:07:26;17.80;59.80
45207;DHT22;30950;53.086;21.576;2023-03-20T11:12:40;17.60;59.70
45207;DHT22;30950;53.086;21.576;2023-03-20T11:15:31;17.50;60.90
45207;DHT22;30950;53.086;21.576;2023-03-20T11:18:01;17.40;60.70
45207;DHT22;30950;53.086;21.576;2023-03-20T11:20:36;17.40;61.40
45207;DHT22;30950;53.086;21.576;2023-03-20T11:23:06;17.40;62.10
45207;DHT22;30950;53.086;21.576;2023-03-20T11:25:38;17.40;61.80
45207;DHT22;30950;53.086;21.576;2023-03-20T11:28:36;17.30;61.00
45207;DHT22;30950;53.086;21.576;2023-03-20T11:33:43;17.40;61.70
45207;DHT22;30950;53.086;21.576;2023-03-20T11:36:26;17.50;60.80
45207;DHT22;30950;53.086;21.576;2023-03-20T11:39:12;17.60;59.90
45207;DHT22;30950;53.086;21.576;2023-03-20T11:44:32;17.60;61.40
45207;DHT22;30950;53.086;21.576;2023-03-20T11:49:33;17.60;62.10
45207;DHT22;30950;53.086;21.576;2023-03-20T11:52:14;17.60;62.40
45207;DHT22;30950;53.086;21.576;2023-03-20T11:54:47;17.50;63.00
45207;DHT22;30950;53.086;21.576;2023-03-20T11:57:37;17.40;63.30
45207;DHT22;30950;53.086;21.576;2023-03-20T12:02:39;17.10;64.50
45207;DHT22;30950;53.086;21.576;2023-03-20T12:05:33;17.10;65.30
45207;DHT22;30950;53.086;21.576;2023-03-20T12:08:11;17.10;65.60
45207;DHT22;30950;53.086;21.576;2023-03-20T12:10:45;17.10;66.40
45207;DHT22;30950;53.086;21.576;2023-03-20T12:13:28;17.20;67.00
45207;DHT22;30950;53.086;21.576;2023-03-20T12:16:01;17.30;67.20
45207;DHT22;30950;53.086;21.576;2023-03-20T12:18:48;17.40;67.30
45207;DHT22;30950;53.086;21.576;2023-03-20T12:23:55;17.60;67.10
45207;DHT22;30950;53.086;21.576;2023-03-20T12:26:23;17.60;66.40
45207;DHT22;30950;53.086;21.576;2023-03-20T12:28:59;17.50;66.50
45207;DHT22;30950;53.086;21.576;2023-03-20T12:31:35;17.50;67.00
45207;DHT22;30950;53.086;21.576;2023-03-20T12:34:17;17.50;67.10
45207;DHT22;30950;53.086;21.576;2023-03-20T12:36:48;17.50;66.60
45207;DHT22;30950;53.086;21.576;2023-03-20T12:39:20;17.50;66.80
45207;DHT22;30950;53.086;21.576;2023-03-20T12:52:43;17.70;66.90
45207;DHT22;30950;53.086;21.576;2023-03-20T13:00:31;17.60;67.10
45207;DHT22;30950;53.086;21.576;2023-03-20T13:08:44;17.40;67.40
45207;DHT22;30950;53.086;21.576;2023-03-20T13:11:22;17.30;67.90
45207;DHT22;30950;53.086;21.576;2023-03-20T13:13:57;17.20;68.30
45207;DHT22;30950;53.086;21.576;2023-03-20T13:42:30;17.00;71.80
45207;DHT22;30950;53.086;21.576;2023-03-20T13:45:18;17.00;72.30
45207;DHT22;30950;53.086;21.576;2023-03-20T13:47:48;16.90;72.80
45207;DHT22;30950;53.086;21.576;2023-03-20T13:50:39;16.80;74.00
45207;DHT22;30950;53.086;21.576;2023-03-20T13:53:28;16.70;74.70
45207;DHT22;30950;53.086;21.576;2023-03-20T13:56:22;16.70;76.10
45207;DHT22;30950;53.086;21.576;2023-03-20T13:59:33;16.60;77.80
45207;DHT22;30950;53.086;21.576;2023-03-20T14:04:30;16.50;81.90
45207;DHT22;30950;53.086;21.576;2023-03-20T14:06:58;16.40;83.50
45207;DHT22;30950;53.086;21.576;2023-03-20T14:09:33;16.30;85.10
45207;DHT22;30950;53.086;21.576;2023-03-20T14:12:07;16.30;87.10
45207;DHT22;30950;53.086;21.576;2023-03-20T14:14:41;16.20;88.00
45207;DHT22;30950;53.086;21.576;2023-03-20T14:17:24;16.10;89.60
45207;DHT22;30950;53.086;21.576;2023-03-20T14:19:53;16.10;90.30
45207;DHT22;30950;53.086;21.576;2023-03-20T14:22:28;16.00;90.90
45207;DHT22;30950;53.086;21.576;2023-03-20T14:24:58;15.90;93.40
45207;DHT22;30950;53.086;21.576;2023-03-20T14:27:29;15.70;93.60
45207;DHT22;30950;53.086;21.576;2023-03-20T14:36:25;15.00;99.90
45207;DHT22;30950;53.086;21.576;2023-03-20T14:39:13;14.40;99.90
45207;DHT22;30950;53.086;21.576;2023-03-20T14:42:04;13.80;99.90
45207;DHT22;30950;53.086;21.576;2023-03-20T14:47:28;13.00;99.90
45207;DHT22;30950;53.086;21.576;2023-03-20T14:55:27;12.80;99.90
45207;DHT22;30950;53.086;21.576;2023-03-20T14:57:55;12.60;99.90
45207;DHT22;30950;53.086;21.576;2023-03-20T15:00:32;12.50;99.90
45207;DHT22;30950;53.086;21.576;2023-03-20T15:03:13;12.30;99.90
45207;DHT22;30950;53.086;21.576;2023-03-20T15:05:41;12.20;99.90
45207;DHT22;30950;53.086;21.576;2023-03-20T15:08:16;12.00;99.90
45207;DHT22;30950;53.086;21.576;2023-03-20T15:10:56;11.90;99.90
45207;DHT22;30950;53.086;21.576;2023-03-20T15:13:25;11.80;99.90
45207;DHT22;30950;53.086;21.576;2023-03-20T15:16:02;11.70;99.90
45207;DHT22;30950;53.086;21.576;2023-03-20T15:21:27;11.60;99.90
45207;DHT22;30950;53.086;21.576;2023-03-20T15:23:57;11.50;99.90
45207;DHT22;30950;53.086;21.576;2023-03-20T15:26:25;11.50;99.90
45207;DHT22;30950;53.086;21.576;2023-03-20T15:29:04;11.50;99.90
45207;DHT22;30950;53.086;21.576;2023-03-20T15:31:34;11.50;99.90
45207;DHT22;30950;53.086;21.576;2023-03-20T15:34:07;11.50;99.90
45207;DHT22;30950;53.086;21.576;2023-03-20T15:36:38;11.50;99.90
45207;DHT22;30950;53.086;21.576;2023-03-20T15:39:12;11.50;99.90
45207;DHT22;30950;53.086;21.576;2023-03-20T15:41:45;11.50;99.90
45207;DHT22;30950;53.086;21.576;2023-03-20T15:44:35;11.50;99.90
45207;DHT22;30950;53.086;21.576;2023-03-20T15:49:38;11.50;99.90
45207;DHT22;30950;53.086;21.576;2023-03-20T15:54:45;11.50;99.90
45207;DHT22;30950;53.086;21.576;2023-03-20T15:57:18;11.50;99.90
45207;DHT22;30950;53.086;21.576;2023-03-20T15:59:46;11.50;99.90
45207;DHT22;30950;53.086;21.576;2023-03-20T16:02:13;11.40;99.90
45207;DHT22;30950;53.086;21.576;2023-03-20T16:04:47;11.40;99.90
45207;DHT22;30950;53.086;21.576;2023-03-20T16:07:30;11.40;99.90
45207;DHT22;30950;53.086;21.576;2023-03-20T16:09:58;11.40;99.90
45207;DHT22;30950;53.086;21.576;2023-03-20T16:12:26;11.40;99.90
45207;DHT22;30950;53.086;21.576;2023-03-20T16:14:55;11.40;99.90
45207;DHT22;30950;53.086;21.576;2023-03-20T16:17:24;11.40;99.90
45207;DHT22;30950;53.086;21.576;2023-03-20T16:19:53;11.40;99.90
45207;DHT22;30950;53.086;21.576;2023-03-20T16:22:23;11.40;99.90
45207;DHT22;30950;53.086;21.576;2023-03-20T16:24:59;11.40;99.90
45207;DHT22;30950;53.086;21.576;2023-03-20T16:27:32;11.40;99.90
45207;DHT22;30950;53.086;21.576;2023-03-20T16:30:24;11.30;99.90
45207;DHT22;30950;53.086;21.576;2023-03-20T16:33:07;11.30;99.90
45207;DHT22;30950;53.086;21.576;2023-03-20T16:35:48;11.30;99.90
45207;DHT22;30950;53.086;21.576;2023-03-20T16:38:27;11.20;99.90
45207;DHT22;30950;53.086;21.576;2023-03-20T16:43:45;11.10;99.90
45207;DHT22;30950;53.086;21.576;2023-03-20T16:46:23;11.10;99.90
45207;DHT22;30950;53.086;21.576;2023-03-20T16:48:56;11.00;99.90
45207;DHT22;30950;53.086;21.576;2023-03-20T16:51:26;11.00;99.90
45207;DHT22;30950;53.086;21.576;2023-03-20T16:53:59;11.00;99.90
45207;DHT22;30950;53.086;21.576;2023-03-20T16:58:55;11.00;99.90
45207;DHT22;30950;53.086;21.576;2023-03-20T17:01:26;11.00;99.90
45207;DHT22;30950;53.086;21.576;2023-03-20T17:03:56;10.90;99.90
45207;DHT22;30950;53.086;21.576;2023-03-20T17:06:36;10.90;99.90
45207;DHT22;30950;53.086;21.576;2023-03-20T17:09:26;10.90;99.90
45207;DHT22;30950;53.086;21.576;2023-03-20T17:12:12;10.90;99.90
45207;DHT22;30950;53.086;21.576;2023-03-20T17:14:40;10.90;99.90
45207;DHT22;30950;53.086;21.576;2023-03-20T17:17:19;10.90;99.90
45207;DHT22;30950;53.086;21.576;2023-03-20T17:19:48;10.80;99.90
45207;DHT22;30950;53.086;21.576;2023-03-20T17:22:22;10.80;99.90
45207;DHT22;30950;53.086;21.576;2023-03-20T17:24:50;10.80;99.90
45207;DHT22;30950;53.086;21.576;2023-03-20T17:27:18;10.80;99.90
45207;DHT22;30950;53.086;21.576;2023-03-20T17:29:47;10.80;99.90
45207;DHT22;30950;53.086;21.576;2023-03-20T17:32:19;10.70;99.90
45207;DHT22;30950;53.086;21.576;2023-03-20T17:34:46;10.70;99.90
45207;DHT22;30950;53.086;21.576;2023-03-20T17:37:18;10.70;99.90
45207;DHT22;30950;53.086;21.576;2023-03-20T17:39:46;10.70;99.90
45207;DHT22;30950;53.086;21.576;2023-03-20T17:42:16;10.70;99.90
45207;DHT22;30950;53.086;21.576;2023-03-20T17:44:47;10.60;99.90
45207;DHT22;30950;53.086;21.576;2023-03-20T17:47:17;10.60;99.90
45207;DHT22;30950;53.086;21.576;2023-03-20T17:49:45;10.60;99.90
45207;DHT22;30950;53.086;21.576;2023-03-20T17:52:14;10.60;99.90
45207;DHT22;30950;53.086;21.576;2023-03-20T17:54:42;10.60;99.90
45207;DHT22;30950;53.086;21.576;2023-03-20T17:57:20;10.50;99.90
45207;DHT22;30950;53.086;21.576;2023-03-20T17:59:48;10.60;99.90
45207;DHT22;30950;53.086;21.576;2023-03-20T18:02:19;10.60;99.90
45207;DHT22;30950;53.086;21.576;2023-03-20T18:04:46;10.50;99.90
45207;DHT22;30950;53.086;21.576;2023-03-20T18:07:15;10.50;99.90
45207;DHT22;30950;53.086;21.576;2023-03-20T18:09:44;10.50;99.90
45207;DHT22;30950;53.086;21.576;2023-03-20T18:12:14;10.40;99.90
45207;DHT22;30950;53.086;21.576;2023-03-20T18:14:43;10.40;99.90
45207;DHT22;30950;53.086;21.576;2023-03-20T18:17:13;10.40;99.90
45207;DHT22;30950;53.086;21.576;2023-03-20T18:19:42;10.40;99.90
45207;DHT22;30950;53.086;21.576;2023-03-20T18:22:09;10.30;99.90
45207;DHT22;30950;53.086;21.576;2023-03-20T18:24:37;10.40;99.90
45207;DHT22;30950;53.086;21.576;2023-03-20T18:27:11;10.30;99.90
45207;DHT22;30950;53.086;21.576;2023-03-20T18:29:38;10.30;99.90
45207;DHT22;30950;53.086;21.576;2023-03-20T18:32:06;10.20;99.90